LMO weather

Lismore - Mortimer Oval Helicopter Landing Site
Lismore, New South Wales, Australia

Public forecast

Using degrees Celsius for public forecast. Weather courtesy of forecast.io.

METAR (pilot weather report)

Closest report is Lismore Airport, 1.8 nm (3.4 km) SW. Retrieved 2019/04/18 10:00 UTC (8 minutes ago):

YLIS 181000Z AUTO 00000KT 9999 // NCD 18/17 Q1024

TAF (pilot weather forecast)

Closest forecast is Gold Coast Airport, 40.4 nm (74.8 km) NNE. Retrieved 2019/04/18 06:00 UTC (4 hours ago):

TAF YBCG 180507Z 1806/1906 16013KT 9999 -SHRA SCT035 FM180800 20009KT 9999 -SHRA SCT015 SCT025 FM182300 12014KT 9999 -SHRA FEW015 SCT025 INTER 1814/1906 3000 SHRA BKN012